sensor_id;sensor_type;location;lat;lon;timestamp;temperature;humidity
10644;DHT22;5370;50.132;8.626;2023-01-08T00:00:51;9.90;90.20
10644;DHT22;5370;50.132;8.626;2023-01-08T00:03:16;9.90;90.20
10644;DHT22;5370;50.132;8.626;2023-01-08T00:05:42;9.90;90.30
10644;DHT22;5370;50.132;8.626;2023-01-08T00:08:08;10.00;89.90
10644;DHT22;5370;50.132;8.626;2023-01-08T00:10:35;10.00;90.00
10644;DHT22;5370;50.132;8.626;2023-01-08T00:13:00;10.10;90.10
10644;DHT22;5370;50.132;8.626;2023-01-08T00:15:27;10.10;90.10
10644;DHT22;5370;50.132;8.626;2023-01-08T00:17:54;10.20;90.10
10644;DHT22;5370;50.132;8.626;2023-01-08T00:20:20;10.20;90.00
10644;DHT22;5370;50.132;8.626;2023-01-08T00:22:49;10.20;90.00
10644;DHT22;5370;50.132;8.626;2023-01-08T00:25:15;10.20;89.80
10644;DHT22;5370;50.132;8.626;2023-01-08T00:30:09;10.20;89.80
10644;DHT22;5370;50.132;8.626;2023-01-08T00:32:34;10.20;89.90
10644;DHT22;5370;50.132;8.626;2023-01-08T00:35:00;10.20;89.90
10644;DHT22;5370;50.132;8.626;2023-01-08T00:37:26;10.20;89.90
10644;DHT22;5370;50.132;8.626;2023-01-08T00:39:51;10.20;89.80
10644;DHT22;5370;50.132;8.626;2023-01-08T00:42:17;10.30;89.70
10644;DHT22;5370;50.132;8.626;2023-01-08T00:44:43;10.30;89.60
10644;DHT22;5370;50.132;8.626;2023-01-08T00:47:08;10.30;89.50
10644;DHT22;5370;50.132;8.626;2023-01-08T00:49:34;10.30;89.40
10644;DHT22;5370;50.132;8.626;2023-01-08T00:51:59;10.30;89.40
10644;DHT22;5370;50.132;8.626;2023-01-08T00:54:25;10.30;89.40
10644;DHT22;5370;50.132;8.626;2023-01-08T00:56:53;10.30;89.50
10644;DHT22;5370;50.132;8.626;2023-01-08T00:59:18;10.30;89.50
10644;DHT22;5370;50.132;8.626;2023-01-08T01:01:46;10.30;89.30
10644;DHT22;5370;50.132;8.626;2023-01-08T01:04:12;10.30;89.20
10644;DHT22;5370;50.132;8.626;2023-01-08T01:06:40;10.30;89.20
10644;DHT22;5370;50.132;8.626;2023-01-08T01:09:05;10.40;89.40
10644;DHT22;5370;50.132;8.626;2023-01-08T01:11:31;10.40;89.50
10644;DHT22;5370;50.132;8.626;2023-01-08T01:13:57;10.40;89.50
10644;DHT22;5370;50.132;8.626;2023-01-08T01:16:22;10.40;89.60
10644;DHT22;5370;50.132;8.626;2023-01-08T01:18:48;10.50;89.80
10644;DHT22;5370;50.132;8.626;2023-01-08T01:21:25;10.50;89.70
10644;DHT22;5370;50.132;8.626;2023-01-08T01:23:58;10.50;89.70
10644;DHT22;5370;50.132;8.626;2023-01-08T01:26:24;10.60;89.70
10644;DHT22;5370;50.132;8.626;2023-01-08T01:28:52;10.60;89.50
10644;DHT22;5370;50.132;8.626;2023-01-08T01:31:18;10.70;89.40
10644;DHT22;5370;50.132;8.626;2023-01-08T01:33:44;10.70;89.20
10644;DHT22;5370;50.132;8.626;2023-01-08T01:36:11;10.80;89.10
10644;DHT22;5370;50.132;8.626;2023-01-08T01:38:37;10.80;88.80
10644;DHT22;5370;50.132;8.626;2023-01-08T01:41:03;10.80;88.60
10644;DHT22;5370;50.132;8.626;2023-01-08T01:43:40;10.90;88.40
10644;DHT22;5370;50.132;8.626;2023-01-08T01:46:23;10.90;88.10
10644;DHT22;5370;50.132;8.626;2023-01-08T01:48:53;10.80;87.70
10644;DHT22;5370;50.132;8.626;2023-01-08T01:51:20;11.00;87.60
10644;DHT22;5370;50.132;8.626;2023-01-08T01:53:46;11.00;87.30
10644;DHT22;5370;50.132;8.626;2023-01-08T01:56:12;11.00;87.10
10644;DHT22;5370;50.132;8.626;2023-01-08T01:58:37;11.00;86.80
10644;DHT22;5370;50.132;8.626;2023-01-08T02:01:05;11.00;86.60
10644;DHT22;5370;50.132;8.626;2023-01-08T02:03:38;11.00;86.20
10644;DHT22;5370;50.132;8.626;2023-01-08T02:09:01;11.10;85.70
10644;DHT22;5370;50.132;8.626;2023-01-08T02:11:50;11.10;85.50
10644;DHT22;5370;50.132;8.626;2023-01-08T02:17:15;11.10;85.00
10644;DHT22;5370;50.132;8.626;2023-01-08T02:19:48;11.10;85.50
10644;DHT22;5370;50.132;8.626;2023-01-08T02:27:50;11.10;84.60
10644;DHT22;5370;50.132;8.626;2023-01-08T02:30:16;11.10;84.40
10644;DHT22;5370;50.132;8.626;2023-01-08T02:32:43;11.10;84.30
10644;DHT22;5370;50.132;8.626;2023-01-08T02:35:09;11.10;84.30
10644;DHT22;5370;50.132;8.626;2023-01-08T02:37:36;11.10;84.30
10644;DHT22;5370;50.132;8.626;2023-01-08T02:40:25;11.10;84.30
10644;DHT22;5370;50.132;8.626;2023-01-08T02:42:58;11.10;84.50
10644;DHT22;5370;50.132;8.626;2023-01-08T02:45:34;11.10;84.70
10644;DHT22;5370;50.132;8.626;2023-01-08T02:48:19;11.00;84.80
10644;DHT22;5370;50.132;8.626;2023-01-08T02:50:54;11.00;85.10
10644;DHT22;5370;50.132;8.626;2023-01-08T02:53:36;11.00;85.40
10644;DHT22;5370;50.132;8.626;2023-01-08T02:56:18;11.00;85.70
10644;DHT22;5370;50.132;8.626;2023-01-08T02:58:45;10.90;85.90
10644;DHT22;5370;50.132;8.626;2023-01-08T03:01:14;10.90;86.30
10644;DHT22;5370;50.132;8.626;2023-01-08T03:03:43;10.80;86.50
10644;DHT22;5370;50.132;8.626;2023-01-08T03:06:13;10.80;86.90
10644;DHT22;5370;50.132;8.626;2023-01-08T03:08:41;10.80;87.30
10644;DHT22;5370;50.132;8.626;2023-01-08T03:11:10;10.80;87.60
10644;DHT22;5370;50.132;8.626;2023-01-08T03:16:35;10.70;88.40
10644;DHT22;5370;50.132;8.626;2023-01-08T03:19:08;10.70;88.80
10644;DHT22;5370;50.132;8.626;2023-01-08T03:21:36;10.60;89.10
10644;DHT22;5370;50.132;8.626;2023-01-08T03:24:03;10.60;89.40
10644;DHT22;5370;50.132;8.626;2023-01-08T03:26:30;10.60;89.80
10644;DHT22;5370;50.132;8.626;2023-01-08T03:28:57;10.60;90.10
10644;DHT22;5370;50.132;8.626;2023-01-08T03:31:25;10.50;90.20
10644;DHT22;5370;50.132;8.626;2023-01-08T03:33:52;10.50;90.40
10644;DHT22;5370;50.132;8.626;2023-01-08T03:36:22;10.50;90.50
10644;DHT22;5370;50.132;8.626;2023-01-08T03:38:58;10.40;90.70
10644;DHT22;5370;50.132;8.626;2023-01-08T03:41:26;10.40;90.90
10644;DHT22;5370;50.132;8.626;2023-01-08T03:43:54;10.30;91.00
10644;DHT22;5370;50.132;8.626;2023-01-08T03:46:25;10.30;91.10
10644;DHT22;5370;50.132;8.626;2023-01-08T03:48:54;10.30;91.30
10644;DHT22;5370;50.132;8.626;2023-01-08T03:51:20;10.30;91.50
10644;DHT22;5370;50.132;8.626;2023-01-08T03:53:47;10.30;91.60
10644;DHT22;5370;50.132;8.626;2023-01-08T03:56:14;10.30;91.80
10644;DHT22;5370;50.132;8.626;2023-01-08T03:58:40;10.30;91.90
10644;DHT22;5370;50.132;8.626;2023-01-08T04:01:05;10.30;92.10
10644;DHT22;5370;50.132;8.626;2023-01-08T04:03:31;10.30;92.20
10644;DHT22;5370;50.132;8.626;2023-01-08T04:05:59;10.30;92.40
10644;DHT22;5370;50.132;8.626;2023-01-08T04:08:24;10.30;92.50
10644;DHT22;5370;50.132;8.626;2023-01-08T04:10:50;10.30;92.70
10644;DHT22;5370;50.132;8.626;2023-01-08T04:13:15;10.30;92.80
10644;DHT22;5370;50.132;8.626;2023-01-08T04:15:47;10.20;92.90
10644;DHT22;5370;50.132;8.626;2023-01-08T04:18:12;10.30;93.20
10644;DHT22;5370;50.132;8.626;2023-01-08T04:20:38;10.30;93.30
10644;DHT22;5370;50.132;8.626;2023-01-08T04:23:03;10.30;93.50
10644;DHT22;5370;50.132;8.626;2023-01-08T04:25:29;10.30;93.60
10644;DHT22;5370;50.132;8.626;2023-01-08T04:27:54;10.30;93.80
10644;DHT22;5370;50.132;8.626;2023-01-08T04:30:20;10.30;93.90
10644;DHT22;5370;50.132;8.626;2023-01-08T04:32:46;10.30;94.00
10644;DHT22;5370;50.132;8.626;2023-01-08T04:35:11;10.30;94.10
10644;DHT22;5370;50.132;8.626;2023-01-08T04:37:37;10.20;94.30
10644;DHT22;5370;50.132;8.626;2023-01-08T04:40:03;10.30;94.40
10644;DHT22;5370;50.132;8.626;2023-01-08T04:42:28;10.30;94.60
10644;DHT22;5370;50.132;8.626;2023-01-08T04:44:54;10.30;94.70
10644;DHT22;5370;50.132;8.626;2023-01-08T04:47:19;10.30;94.80
10644;DHT22;5370;50.132;8.626;2023-01-08T04:49:45;10.30;94.90
10644;DHT22;5370;50.132;8.626;2023-01-08T04:52:10;10.30;95.10
10644;DHT22;5370;50.132;8.626;2023-01-08T04:54:36;10.30;95.30
10644;DHT22;5370;50.132;8.626;2023-01-08T04:57:01;10.30;95.40
10644;DHT22;5370;50.132;8.626;2023-01-08T04:59:27;10.30;95.50
10644;DHT22;5370;50.132;8.626;2023-01-08T05:01:52;10.30;95.70
10644;DHT22;5370;50.132;8.626;2023-01-08T05:04:18;10.40;95.80
10644;DHT22;5370;50.132;8.626;2023-01-08T05:06:43;10.30;95.90
10644;DHT22;5370;50.132;8.626;2023-01-08T05:09:09;10.40;96.10
10644;DHT22;5370;50.132;8.626;2023-01-08T05:11:36;10.40;96.20
10644;DHT22;5370;50.132;8.626;2023-01-08T05:14:01;10.40;96.30
10644;DHT22;5370;50.132;8.626;2023-01-08T05:16:27;10.40;96.50
10644;DHT22;5370;50.132;8.626;2023-01-08T05:18:52;10.40;96.50
10644;DHT22;5370;50.132;8.626;2023-01-08T05:21:18;10.40;96.60
10644;DHT22;5370;50.132;8.626;2023-01-08T05:23:46;10.40;96.70
10644;DHT22;5370;50.132;8.626;2023-01-08T05:26:15;10.40;96.80
10644;DHT22;5370;50.132;8.626;2023-01-08T05:28:41;10.40;96.90
10644;DHT22;5370;50.132;8.626;2023-01-08T05:31:07;10.40;97.00
10644;DHT22;5370;50.132;8.626;2023-01-08T05:33:33;10.40;97.00
10644;DHT22;5370;50.132;8.626;2023-01-08T05:35:59;10.40;97.20
10644;DHT22;5370;50.132;8.626;2023-01-08T05:38:24;10.40;97.30
10644;DHT22;5370;50.132;8.626;2023-01-08T05:40:53;10.40;97.30
10644;DHT22;5370;50.132;8.626;2023-01-08T05:43:18;10.30;97.40
10644;DHT22;5370;50.132;8.626;2023-01-08T05:45:44;10.30;97.40
10644;DHT22;5370;50.132;8.626;2023-01-08T05:48:10;10.30;97.50
10644;DHT22;5370;50.132;8.626;2023-01-08T05:50:35;10.30;97.60
10644;DHT22;5370;50.132;8.626;2023-01-08T05:53:04;10.30;97.70
10644;DHT22;5370;50.132;8.626;2023-01-08T05:55:30;10.30;97.70
10644;DHT22;5370;50.132;8.626;2023-01-08T05:58:00;10.30;97.80
10644;DHT22;5370;50.132;8.626;2023-01-08T06:00:25;10.30;97.80
10644;DHT22;5370;50.132;8.626;2023-01-08T06:02:51;10.20;97.70
10644;DHT22;5370;50.132;8.626;2023-01-08T06:05:16;10.20;97.70
10644;DHT22;5370;50.132;8.626;2023-01-08T06:07:42;10.20;97.70
10644;DHT22;5370;50.132;8.626;2023-01-08T06:10:08;10.20;97.70
10644;DHT22;5370;50.132;8.626;2023-01-08T06:12:33;10.20;97.80
10644;DHT22;5370;50.132;8.626;2023-01-08T06:14:59;10.10;97.80
10644;DHT22;5370;50.132;8.626;2023-01-08T06:17:24;10.10;97.80
10644;DHT22;5370;50.132;8.626;2023-01-08T06:19:50;10.10;97.90
10644;DHT22;5370;50.132;8.626;2023-01-08T06:22:15;10.10;97.90
10644;DHT22;5370;50.132;8.626;2023-01-08T06:24:41;10.10;98.00
10644;DHT22;5370;50.132;8.626;2023-01-08T06:27:06;10.10;98.10
10644;DHT22;5370;50.132;8.626;2023-01-08T06:29:32;10.10;98.10
10644;DHT22;5370;50.132;8.626;2023-01-08T06:31:57;10.10;98.20
10644;DHT22;5370;50.132;8.626;2023-01-08T06:34:23;10.10;98.20
10644;DHT22;5370;50.132;8.626;2023-01-08T06:36:48;10.10;98.20
10644;DHT22;5370;50.132;8.626;2023-01-08T06:39:15;10.10;98.20
10644;DHT22;5370;50.132;8.626;2023-01-08T06:41:42;10.10;98.30
10644;DHT22;5370;50.132;8.626;2023-01-08T06:44:07;10.10;98.30
10644;DHT22;5370;50.132;8.626;2023-01-08T06:46:33;10.10;98.40
10644;DHT22;5370;50.132;8.626;2023-01-08T06:49:07;10.10;98.40
10644;DHT22;5370;50.132;8.626;2023-01-08T06:51:33;10.10;98.40
10644;DHT22;5370;50.132;8.626;2023-01-08T06:53:58;10.00;98.40
10644;DHT22;5370;50.132;8.626;2023-01-08T06:56:24;10.00;98.40
10644;DHT22;5370;50.132;8.626;2023-01-08T06:58:49;10.10;98.50
10644;DHT22;5370;50.132;8.626;2023-01-08T07:01:16;10.00;98.50
10644;DHT22;5370;50.132;8.626;2023-01-08T07:03:41;10.10;98.60
10644;DHT22;5370;50.132;8.626;2023-01-08T07:06:16;10.10;98.60
10644;DHT22;5370;50.132;8.626;2023-01-08T07:08:43;10.00;98.60
10644;DHT22;5370;50.132;8.626;2023-01-08T07:11:08;9.90;99.10
10644;DHT22;5370;50.132;8.626;2023-01-08T07:13:34;10.00;98.60
10644;DHT22;5370;50.132;8.626;2023-01-08T07:16:07;10.10;98.80
10644;DHT22;5370;50.132;8.626;2023-01-08T07:18:33;10.00;98.70
10644;DHT22;5370;50.132;8.626;2023-01-08T07:21:04;10.00;98.70
10644;DHT22;5370;50.132;8.626;2023-01-08T07:23:29;10.00;98.80
10644;DHT22;5370;50.132;8.626;2023-01-08T07:25:59;10.00;98.80
10644;DHT22;5370;50.132;8.626;2023-01-08T07:28:24;10.00;98.80
10644;DHT22;5370;50.132;8.626;2023-01-08T07:30:50;10.00;98.80
10644;DHT22;5370;50.132;8.626;2023-01-08T07:33:15;10.00;98.90
10644;DHT22;5370;50.132;8.626;2023-01-08T07:35:41;10.00;98.90
10644;DHT22;5370;50.132;8.626;2023-01-08T07:38:06;10.00;99.00
10644;DHT22;5370;50.132;8.626;2023-01-08T07:40:32;10.00;99.00
10644;DHT22;5370;50.132;8.626;2023-01-08T07:43:02;10.00;99.10
10644;DHT22;5370;50.132;8.626;2023-01-08T07:45:29;10.00;99.20
10644;DHT22;5370;50.132;8.626;2023-01-08T07:47:58;10.00;99.20
10644;DHT22;5370;50.132;8.626;2023-01-08T07:50:24;10.00;99.30
10644;DHT22;5370;50.132;8.626;2023-01-08T07:52:50;10.00;99.30
10644;DHT22;5370;50.132;8.626;2023-01-08T07:55:15;10.00;99.30
10644;DHT22;5370;50.132;8.626;2023-01-08T07:57:41;10.00;99.30
10644;DHT22;5370;50.132;8.626;2023-01-08T08:00:07;10.00;99.40
10644;DHT22;5370;50.132;8.626;2023-01-08T08:02:33;10.10;99.40
10644;DHT22;5370;50.132;8.626;2023-01-08T08:04:58;10.10;99.50
10644;DHT22;5370;50.132;8.626;2023-01-08T08:07:24;10.10;99.40
10644;DHT22;5370;50.132;8.626;2023-01-08T08:09:49;10.10;99.50
10644;DHT22;5370;50.132;8.626;2023-01-08T08:12:15;10.10;99.50
10644;DHT22;5370;50.132;8.626;2023-01-08T08:14:41;10.20;99.70
10644;DHT22;5370;50.132;8.626;2023-01-08T08:17:06;10.20;99.70
10644;DHT22;5370;50.132;8.626;2023-01-08T08:19:32;10.20;99.60
10644;DHT22;5370;50.132;8.626;2023-01-08T08:21:57;10.30;99.60
10644;DHT22;5370;50.132;8.626;2023-01-08T08:24:23;10.30;99.50
10644;DHT22;5370;50.132;8.626;2023-01-08T08:26:50;10.30;99.30
10644;DHT22;5370;50.132;8.626;2023-01-08T08:29:15;10.40;99.30
10644;DHT22;5370;50.132;8.626;2023-01-08T08:31:41;10.30;99.20
10644;DHT22;5370;50.132;8.626;2023-01-08T08:34:07;10.30;99.10
10644;DHT22;5370;50.132;8.626;2023-01-08T08:36:33;10.30;99.10
10644;DHT22;5370;50.132;8.626;2023-01-08T08:38:58;10.30;99.00
10644;DHT22;5370;50.132;8.626;2023-01-08T08:41:24;10.30;99.00
10644;DHT22;5370;50.132;8.626;2023-01-08T08:43:49;10.30;99.00
10644;DHT22;5370;50.132;8.626;2023-01-08T08:46:16;10.30;99.00
10644;DHT22;5370;50.132;8.626;2023-01-08T08:48:46;10.30;99.00
10644;DHT22;5370;50.132;8.626;2023-01-08T08:51:12;10.20;99.00
10644;DHT22;5370;50.132;8.626;2023-01-08T08:53:38;10.20;99.00
10644;DHT22;5370;50.132;8.626;2023-01-08T08:56:04;10.20;99.00
10644;DHT22;5370;50.132;8.626;2023-01-08T08:58:29;10.20;99.10
10644;DHT22;5370;50.132;8.626;2023-01-08T09:01:03;10.20;99.10
10644;DHT22;5370;50.132;8.626;2023-01-08T09:03:29;10.20;99.20
10644;DHT22;5370;50.132;8.626;2023-01-08T09:05:54;10.20;99.20
10644;DHT22;5370;50.132;8.626;2023-01-08T09:08:20;10.20;99.20
10644;DHT22;5370;50.132;8.626;2023-01-08T09:10:46;10.20;99.30
10644;DHT22;5370;50.132;8.626;2023-01-08T09:13:11;10.20;99.30
10644;DHT22;5370;50.132;8.626;2023-01-08T09:15:37;10.20;99.30
10644;DHT22;5370;50.132;8.626;2023-01-08T09:18:03;10.20;99.40
10644;DHT22;5370;50.132;8.626;2023-01-08T09:20:29;10.20;99.40
10644;DHT22;5370;50.132;8.626;2023-01-08T09:22:58;10.20;99.40
10644;DHT22;5370;50.132;8.626;2023-01-08T09:25:23;10.30;99.50
10644;DHT22;5370;50.132;8.626;2023-01-08T09:28:01;10.20;99.50
10644;DHT22;5370;50.132;8.626;2023-01-08T09:30:27;10.30;99.60
10644;DHT22;5370;50.132;8.626;2023-01-08T09:32:57;10.30;99.60
10644;DHT22;5370;50.132;8.626;2023-01-08T09:35:23;10.30;99.70
10644;DHT22;5370;50.132;8.626;2023-01-08T09:37:50;10.30;99.70
10644;DHT22;5370;50.132;8.626;2023-01-08T09:40:16;10.30;99.70
10644;DHT22;5370;50.132;8.626;2023-01-08T09:42:41;10.40;99.90
10644;DHT22;5370;50.132;8.626;2023-01-08T09:45:15;10.40;99.90
10644;DHT22;5370;50.132;8.626;2023-01-08T09:47:46;10.50;99.90
10644;DHT22;5370;50.132;8.626;2023-01-08T09:50:13;10.50;99.90
10644;DHT22;5370;50.132;8.626;2023-01-08T09:52:38;10.50;99.80
10644;DHT22;5370;50.132;8.626;2023-01-08T09:55:15;10.50;99.80
10644;DHT22;5370;50.132;8.626;2023-01-08T09:57:44;10.60;99.80
10644;DHT22;5370;50.132;8.626;2023-01-08T10:00:23;10.60;99.80
10644;DHT22;5370;50.132;8.626;2023-01-08T10:02:51;10.70;99.90
10644;DHT22;5370;50.132;8.626;2023-01-08T10:05:18;10.70;99.80
10644;DHT22;5370;50.132;8.626;2023-01-08T10:07:44;10.80;99.70
10644;DHT22;5370;50.132;8.626;2023-01-08T10:10:25;10.80;99.60
10644;DHT22;5370;50.132;8.626;2023-01-08T10:12:52;10.90;99.60
10644;DHT22;5370;50.132;8.626;2023-01-08T10:15:20;10.90;99.40
10644;DHT22;5370;50.132;8.626;2023-01-08T10:17:58;10.90;99.20
10644;DHT22;5370;50.132;8.626;2023-01-08T10:20:25;10.90;99.20
10644;DHT22;5370;50.132;8.626;2023-01-08T10:22:51;10.90;99.20
10644;DHT22;5370;50.132;8.626;2023-01-08T10:25:25;10.90;99.20
10644;DHT22;5370;50.132;8.626;2023-01-08T10:27:56;11.00;99.20
10644;DHT22;5370;50.132;8.626;2023-01-08T10:30:32;11.00;99.10
10644;DHT22;5370;50.132;8.626;2023-01-08T10:33:45;11.10;99.00
10644;DHT22;5370;50.132;8.626;2023-01-08T10:35:57;11.10;98.90
10644;DHT22;5370;50.132;8.626;2023-01-08T10:38:29;11.10;98.80
10644;DHT22;5370;50.132;8.626;2023-01-08T10:40:55;11.10;98.80
10644;DHT22;5370;50.132;8.626;2023-01-08T10:43:30;11.10;98.70
10644;DHT22;5370;50.132;8.626;2023-01-08T10:46:05;11.20;98.80
10644;DHT22;5370;50.132;8.626;2023-01-08T10:48:34;11.30;98.90
10644;DHT22;5370;50.132;8.626;2023-01-08T10:51:06;11.30;98.70
10644;DHT22;5370;50.132;8.626;2023-01-08T10:53:37;11.40;98.60
10644;DHT22;5370;50.132;8.626;2023-01-08T10:56:04;11.40;98.20
10644;DHT22;5370;50.132;8.626;2023-01-08T10:58:40;11.40;98.10
10644;DHT22;5370;50.132;8.626;2023-01-08T11:01:17;11.50;98.20
10644;DHT22;5370;50.132;8.626;2023-01-08T11:03:48;11.60;98.10
10644;DHT22;5370;50.132;8.626;2023-01-08T11:06:26;11.60;97.90
10644;DHT22;5370;50.132;8.626;2023-01-08T11:08:58;11.70;97.70
10644;DHT22;5370;50.132;8.626;2023-01-08T11:11:30;11.80;97.70
10644;DHT22;5370;50.132;8.626;2023-01-08T11:14:03;11.90;97.50
10644;DHT22;5370;50.132;8.626;2023-01-08T11:16:37;12.00;97.20
10644;DHT22;5370;50.132;8.626;2023-01-08T11:19:03;12.00;97.00
10644;DHT22;5370;50.132;8.626;2023-01-08T11:21:31;12.10;96.80
10644;DHT22;5370;50.132;8.626;2023-01-08T11:24:30;12.10;96.60
10644;DHT22;5370;50.132;8.626;2023-01-08T11:27:43;12.20;96.50
10644;DHT22;5370;50.132;8.626;2023-01-08T11:29:56;12.20;96.20
10644;DHT22;5370;50.132;8.626;2023-01-08T11:35:20;12.30;95.70
10644;DHT22;5370;50.132;8.626;2023-01-08T11:37:55;12.30;95.40
10644;DHT22;5370;50.132;8.626;2023-01-08T11:48:36;12.00;94.70
10644;DHT22;5370;50.132;8.626;2023-01-08T12:02:53;12.00;95.10
10644;DHT22;5370;50.132;8.626;2023-01-08T12:05:29;12.10;95.00
10644;DHT22;5370;50.132;8.626;2023-01-08T12:27:51;12.40;94.40
10644;DHT22;5370;50.132;8.626;2023-01-08T12:35:48;12.50;93.80
10644;DHT22;5370;50.132;8.626;2023-01-08T12:38:39;12.40;93.60
10644;DHT22;5370;50.132;8.626;2023-01-08T12:41:12;12.40;93.70
10644;DHT22;5370;50.132;8.626;2023-01-08T12:46:16;12.40;93.40
10644;DHT22;5370;50.132;8.626;2023-01-08T12:48:44;12.40;93.40
10644;DHT22;5370;50.132;8.626;2023-01-08T12:51:17;12.40;93.50
10644;DHT22;5370;50.132;8.626;2023-01-08T12:54:06;12.30;93.40
10644;DHT22;5370;50.132;8.626;2023-01-08T12:59:27;12.40;93.30
10644;DHT22;5370;50.132;8.626;2023-01-08T13:03:08;12.40;93.30
10644;DHT22;5370;50.132;8.626;2023-01-08T13:07:48;12.50;93.40
10644;DHT22;5370;50.132;8.626;2023-01-08T13:13:01;12.60;93.10
10644;DHT22;5370;50.132;8.626;2023-01-08T13:15:29;12.60;92.90
10644;DHT22;5370;50.132;8.626;2023-01-08T13:17:57;12.60;92.80
10644;DHT22;5370;50.132;8.626;2023-01-08T13:20:28;12.50;92.70
10644;DHT22;5370;50.132;8.626;2023-01-08T13:22:57;12.50;92.60
10644;DHT22;5370;50.132;8.626;2023-01-08T13:27:53;12.40;92.70
10644;DHT22;5370;50.132;8.626;2023-01-08T13:30:40;12.40;92.80
10644;DHT22;5370;50.132;8.626;2023-01-08T13:38:41;12.40;92.50
10644;DHT22;5370;50.132;8.626;2023-01-08T13:44:01;12.20;92.30
10644;DHT22;5370;50.132;8.626;2023-01-08T13:46:30;12.20;92.40
10644;DHT22;5370;50.132;8.626;2023-01-08T13:49:08;12.20;92.60
10644;DHT22;5370;50.132;8.626;2023-01-08T13:54:24;12.10;92.40
10644;DHT22;5370;50.132;8.626;2023-01-08T13:56:54;12.10;92.40
10644;DHT22;5370;50.132;8.626;2023-01-08T13:59:47;12.00;92.40
10644;DHT22;5370;50.132;8.626;2023-01-08T14:04:53;12.00;92.70
10644;DHT22;5370;50.132;8.626;2023-01-08T14:07:18;11.90;92.70
10644;DHT22;5370;50.132;8.626;2023-01-08T14:09:44;11.90;92.70
10644;DHT22;5370;50.132;8.626;2023-01-08T14:12:12;11.90;92.80
10644;DHT22;5370;50.132;8.626;2023-01-08T14:14:42;11.90;92.80
10644;DHT22;5370;50.132;8.626;2023-01-08T14:17:14;11.90;92.90
10644;DHT22;5370;50.132;8.626;2023-01-08T14:19:44;11.80;92.90
10644;DHT22;5370;50.132;8.626;2023-01-08T14:22:19;11.80;93.00
10644;DHT22;5370;50.132;8.626;2023-01-08T14:24:53;11.90;93.10
10644;DHT22;5370;50.132;8.626;2023-01-08T14:27:24;11.90;93.00
10644;DHT22;5370;50.132;8.626;2023-01-08T14:29:50;11.90;93.00
10644;DHT22;5370;50.132;8.626;2023-01-08T14:32:17;11.90;93.00
10644;DHT22;5370;50.132;8.626;2023-01-08T14:34:44;11.90;93.00
10644;DHT22;5370;50.132;8.626;2023-01-08T14:37:15;11.90;92.90
10644;DHT22;5370;50.132;8.626;2023-01-08T14:39:41;11.90;92.90
10644;DHT22;5370;50.132;8.626;2023-01-08T14:42:21;12.00;93.00
10644;DHT22;5370;50.132;8.626;2023-01-08T14:47:50;12.00;92.90
10644;DHT22;5370;50.132;8.626;2023-01-08T14:50:26;11.90;92.80
10644;DHT22;5370;50.132;8.626;2023-01-08T14:52:57;11.90;92.70
10644;DHT22;5370;50.132;8.626;2023-01-08T14:55:24;11.90;92.60
10644;DHT22;5370;50.132;8.626;2023-01-08T14:57:52;11.80;92.60
10644;DHT22;5370;50.132;8.626;2023-01-08T15:00:23;11.80;92.60
10644;DHT22;5370;50.132;8.626;2023-01-08T15:02:49;11.70;92.60
10644;DHT22;5370;50.132;8.626;2023-01-08T15:05:29;11.60;92.60
10644;DHT22;5370;50.132;8.626;2023-01-08T15:07:59;11.60;92.70
10644;DHT22;5370;50.132;8.626;2023-01-08T15:10:55;11.50;92.70
10644;DHT22;5370;50.132;8.626;2023-01-08T15:13:24;11.40;92.80
10644;DHT22;5370;50.132;8.626;2023-01-08T15:15:58;11.30;93.00
10644;DHT22;5370;50.132;8.626;2023-01-08T15:18:24;11.20;93.20
10644;DHT22;5370;50.132;8.626;2023-01-08T15:20:50;11.20;93.30
10644;DHT22;5370;50.132;8.626;2023-01-08T15:23:33;11.20;93.40
10644;DHT22;5370;50.132;8.626;2023-01-08T15:25:59;11.10;93.40
10644;DHT22;5370;50.132;8.626;2023-01-08T15:28:25;11.10;93.40
10644;DHT22;5370;50.132;8.626;2023-01-08T15:30:51;11.00;93.40
10644;DHT22;5370;50.132;8.626;2023-01-08T15:33:22;10.90;93.60
10644;DHT22;5370;50.132;8.626;2023-01-08T15:35:49;10.90;93.70
10644;DHT22;5370;50.132;8.626;2023-01-08T15:38:16;10.80;93.90
10644;DHT22;5370;50.132;8.626;2023-01-08T15:40:42;10.80;94.10
10644;DHT22;5370;50.132;8.626;2023-01-08T15:43:11;10.70;94.20
10644;DHT22;5370;50.132;8.626;2023-01-08T15:45:40;10.70;94.40
10644;DHT22;5370;50.132;8.626;2023-01-08T15:48:06;10.70;94.50
10644;DHT22;5370;50.132;8.626;2023-01-08T15:50:32;10.70;94.60
10644;DHT22;5370;50.132;8.626;2023-01-08T15:53:02;10.60;94.80
10644;DHT22;5370;50.132;8.626;2023-01-08T15:55:28;10.60;94.90
10644;DHT22;5370;50.132;8.626;2023-01-08T15:57:54;10.60;95.10
10644;DHT22;5370;50.132;8.626;2023-01-08T16:00:20;10.60;95.20
10644;DHT22;5370;50.132;8.626;2023-01-08T16:02:48;10.60;95.30
10644;DHT22;5370;50.132;8.626;2023-01-08T16:05:20;10.60;95.50
10644;DHT22;5370;50.132;8.626;2023-01-08T16:07:46;10.50;95.70
10644;DHT22;5370;50.132;8.626;2023-01-08T16:10:12;10.60;96.30
10644;DHT22;5370;50.132;8.626;2023-01-08T16:12:38;10.70;96.90
10644;DHT22;5370;50.132;8.626;2023-01-08T16:15:05;10.80;97.40
10644;DHT22;5370;50.132;8.626;2023-01-08T16:17:34;11.00;97.70
10644;DHT22;5370;50.132;8.626;2023-01-08T16:20:04;11.10;97.60
10644;DHT22;5370;50.132;8.626;2023-01-08T16:22:30;11.20;97.00
10644;DHT22;5370;50.132;8.626;2023-01-08T16:24:56;11.20;96.50
10644;DHT22;5370;50.132;8.626;2023-01-08T16:27:22;11.20;96.20
10644;DHT22;5370;50.132;8.626;2023-01-08T16:29:47;11.20;95.90
10644;DHT22;5370;50.132;8.626;2023-01-08T16:32:13;11.10;95.80
10644;DHT22;5370;50.132;8.626;2023-01-08T16:34:38;11.10;95.70
10644;DHT22;5370;50.132;8.626;2023-01-08T16:37:04;11.10;95.60
10644;DHT22;5370;50.132;8.626;2023-01-08T16:39:29;11.00;95.60
10644;DHT22;5370;50.132;8.626;2023-01-08T16:41:56;11.00;95.60
10644;DHT22;5370;50.132;8.626;2023-01-08T16:44:24;10.90;95.50
10644;DHT22;5370;50.132;8.626;2023-01-08T16:46:50;10.90;95.50
10644;DHT22;5370;50.132;8.626;2023-01-08T16:49:15;10.80;95.50
10644;DHT22;5370;50.132;8.626;2023-01-08T16:51:41;10.80;95.50
10644;DHT22;5370;50.132;8.626;2023-01-08T16:54:11;10.80;95.50
10644;DHT22;5370;50.132;8.626;2023-01-08T16:56:37;10.70;95.60
10644;DHT22;5370;50.132;8.626;2023-01-08T16:59:02;10.70;95.60
10644;DHT22;5370;50.132;8.626;2023-01-08T17:01:28;10.60;95.60
10644;DHT22;5370;50.132;8.626;2023-01-08T17:03:53;10.50;95.60
10644;DHT22;5370;50.132;8.626;2023-01-08T17:06:19;10.50;95.60
10644;DHT22;5370;50.132;8.626;2023-01-08T17:08:44;10.50;95.70
10644;DHT22;5370;50.132;8.626;2023-01-08T17:11:15;10.40;95.70
10644;DHT22;5370;50.132;8.626;2023-01-08T17:13:41;10.30;95.80
10644;DHT22;5370;50.132;8.626;2023-01-08T17:16:09;10.30;95.80
10644;DHT22;5370;50.132;8.626;2023-01-08T17:18:35;10.20;95.80
10644;DHT22;5370;50.132;8.626;2023-01-08T17:21:01;10.20;95.90
10644;DHT22;5370;50.132;8.626;2023-01-08T17:23:27;10.10;95.90
10644;DHT22;5370;50.132;8.626;2023-01-08T17:25:58;10.10;96.10
10644;DHT22;5370;50.132;8.626;2023-01-08T17:28:25;10.10;96.30
10644;DHT22;5370;50.132;8.626;2023-01-08T17:30:53;10.10;96.60